createdAt,value
2017-09-16T00:00:15.766Z,0
2017-09-16T00:00:41.894Z,0
2017-09-16T00:01:08.026Z,0
2017-09-16T00:01:34.155Z,0
2017-09-16T00:02:00.284Z,0
2017-09-16T00:02:26.414Z,0
2017-09-16T00:02:52.544Z,0
2017-09-16T00:03:18.673Z,0
2017-09-16T00:03:44.802Z,0
2017-09-16T00:04:10.931Z,0
2017-09-16T00:04:37.061Z,0
2017-09-16T00:05:03.196Z,0
2017-09-16T00:05:29.317Z,0
2017-09-16T00:05:55.444Z,0
2017-09-16T00:06:21.574Z,0
2017-09-16T00:06:47.703Z,0
2017-09-16T00:07:13.833Z,0
2017-09-16T00:07:39.970Z,0
2017-09-16T00:08:06.094Z,0
2017-09-16T00:08:32.223Z,0
2017-09-16T00:08:58.351Z,0
2017-09-16T00:09:24.481Z,0
2017-09-16T00:09:50.611Z,0
2017-09-16T00:10:16.765Z,0
2017-09-16T00:10:42.891Z,0
2017-09-16T00:11:09.020Z,0
2017-09-16T00:11:35.148Z,0
2017-09-16T00:12:01.277Z,0
2017-09-16T00:12:27.405Z,0
2017-09-16T00:12:53.533Z,0
2017-09-16T00:13:19.662Z,0
2017-09-16T00:13:45.792Z,0
2017-09-16T00:14:11.920Z,0
2017-09-16T00:14:38.049Z,0
2017-09-16T00:15:04.178Z,0
2017-09-16T00:15:30.308Z,0
2017-09-16T00:15:56.458Z,0
2017-09-16T00:16:22.588Z,0
2017-09-16T00:16:48.717Z,0
2017-09-16T00:17:14.846Z,0
2017-09-16T00:17:40.976Z,0
2017-09-16T00:18:07.128Z,0
2017-09-16T00:18:33.256Z,0
2017-09-16T00:18:59.383Z,0
2017-09-16T00:19:25.513Z,0
2017-09-16T00:19:51.641Z,0
2017-09-16T00:20:17.770Z,0
2017-09-16T00:20:43.903Z,0
2017-09-16T00:21:10.028Z,0
2017-09-16T00:21:36.158Z,0
2017-09-16T00:22:02.286Z,0
2017-09-16T00:22:28.417Z,0
2017-09-16T00:22:54.545Z,0
2017-09-16T00:23:20.697Z,0
2017-09-16T00:23:46.825Z,0
2017-09-16T00:24:12.955Z,0
2017-09-16T00:24:39.085Z,0
2017-09-16T00:25:05.214Z,0
2017-09-16T00:25:31.343Z,0
2017-09-16T00:25:57.472Z,0
2017-09-16T00:26:23.600Z,0
2017-09-16T00:26:49.730Z,0
2017-09-16T00:27:15.859Z,0
2017-09-16T00:27:41.991Z,0
2017-09-16T00:28:08.116Z,0
2017-09-16T00:28:34.247Z,0
2017-09-16T00:29:00.375Z,0
2017-09-16T00:29:26.505Z,0
2017-09-16T00:29:52.634Z,0
2017-09-16T00:30:18.766Z,0
2017-09-16T00:30:44.892Z,0
2017-09-16T00:31:11.020Z,0
2017-09-16T00:31:37.151Z,0
2017-09-16T00:32:03.278Z,0
2017-09-16T00:32:29.408Z,0
2017-09-16T00:32:55.537Z,0
2017-09-16T00:33:21.667Z,0
2017-09-16T00:33:47.796Z,0
2017-09-16T00:34:13.928Z,0
2017-09-16T00:34:40.076Z,0
2017-09-16T00:35:06.205Z,0
2017-09-16T00:35:32.334Z,0
2017-09-16T00:35:58.464Z,0
2017-09-16T00:36:24.593Z,0
2017-09-16T00:36:50.722Z,0
2017-09-16T00:37:16.851Z,0
2017-09-16T00:37:42.981Z,0
2017-09-16T00:38:09.109Z,0
2017-09-16T00:38:35.239Z,0
2017-09-16T00:39:01.369Z,0
2017-09-16T00:39:27.497Z,0
2017-09-16T00:39:53.626Z,0
2017-09-16T00:40:19.754Z,0
2017-09-16T00:40:45.884Z,0
2017-09-16T00:41:12.014Z,0
2017-09-16T00:41:38.142Z,0
2017-09-16T00:42:04.272Z,0
2017-09-16T00:42:30.399Z,0
2017-09-16T00:42:56.528Z,0
2017-09-16T00:43:22.657Z,0
2017-09-16T00:43:48.787Z,0
2017-09-16T00:44:14.938Z,0
2017-09-16T00:44:41.068Z,0
2017-09-16T00:45:07.196Z,0
2017-09-16T00:45:33.327Z,0
2017-09-16T00:45:59.454Z,0
2017-09-16T00:46:25.584Z,0
2017-09-16T00:46:51.713Z,0
2017-09-16T00:47:17.842Z,0
2017-09-16T00:47:43.970Z,0
2017-09-16T00:48:10.100Z,0
2017-09-16T00:48:36.228Z,0
2017-09-16T00:49:02.356Z,0
2017-09-16T00:49:28.485Z,0
2017-09-16T00:49:54.615Z,0
2017-09-16T00:50:20.745Z,0
2017-09-16T00:50:46.874Z,0
2017-09-16T00:51:13.025Z,0
2017-09-16T00:51:39.153Z,0
2017-09-16T00:52:05.282Z,0
2017-09-16T00:52:31.411Z,0
2017-09-16T00:52:57.539Z,0
2017-09-16T00:53:23.667Z,0
2017-09-16T00:53:49.797Z,0
2017-09-16T00:54:15.926Z,0
2017-09-16T00:54:42.089Z,0
2017-09-16T00:55:08.229Z,0
2017-09-16T00:55:34.358Z,0
2017-09-16T00:56:00.487Z,0
2017-09-16T00:56:26.616Z,0
2017-09-16T00:56:52.745Z,0
2017-09-16T00:57:18.874Z,0
2017-09-16T00:57:45.003Z,0
2017-09-16T00:58:11.133Z,0
2017-09-16T00:58:37.261Z,0
2017-09-16T00:59:03.391Z,0
2017-09-16T00:59:29.519Z,0
2017-09-16T00:59:55.647Z,0
2017-09-16T01:00:21.775Z,0
2017-09-16T01:00:47.904Z,0
2017-09-16T01:01:14.033Z,0
2017-09-16T01:01:40.163Z,0
2017-09-16T01:02:06.314Z,0
2017-09-16T01:02:32.444Z,0
2017-09-16T01:02:58.572Z,0
2017-09-16T01:03:24.703Z,0
2017-09-16T01:03:50.830Z,0
2017-09-16T01:04:16.959Z,0
2017-09-16T01:04:43.088Z,0
2017-09-16T01:05:09.218Z,0
2017-09-16T01:05:35.347Z,0
2017-09-16T01:06:01.477Z,0
2017-09-16T01:06:27.605Z,0
2017-09-16T01:06:53.733Z,0
2017-09-16T01:07:19.863Z,0
2017-09-16T01:07:45.992Z,0
2017-09-16T01:08:12.130Z,0
2017-09-16T01:08:38.273Z,0
2017-09-16T01:09:04.402Z,0
2017-09-16T01:09:30.531Z,0
2017-09-16T01:09:56.660Z,0
2017-09-16T01:10:22.811Z,0
2017-09-16T01:10:48.938Z,0
2017-09-16T01:11:15.068Z,0
2017-09-16T01:11:41.196Z,0
2017-09-16T01:12:07.325Z,0
2017-09-16T01:12:33.454Z,0
2017-09-16T01:12:59.583Z,0
2017-09-16T01:13:25.713Z,0
2017-09-16T01:13:51.841Z,0
2017-09-16T01:14:17.969Z,0
2017-09-16T01:14:44.098Z,0
2017-09-16T01:15:10.227Z,0
2017-09-16T01:15:36.379Z,0
2017-09-16T01:16:02.508Z,0
2017-09-16T01:16:28.637Z,0
2017-09-16T01:16:54.787Z,0
2017-09-16T01:17:20.916Z,0
2017-09-16T01:17:47.046Z,0
2017-09-16T01:18:13.174Z,0
2017-09-16T01:18:39.303Z,0
2017-09-16T01:19:05.431Z,0
2017-09-16T01:19:31.562Z,0
2017-09-16T01:19:57.692Z,0
2017-09-16T01:20:23.820Z,0
2017-09-16T01:20:49.948Z,0
2017-09-16T01:21:16.078Z,0
2017-09-16T01:21:42.207Z,0
2017-09-16T01:22:08.336Z,0
2017-09-16T01:22:34.465Z,0
2017-09-16T01:23:00.594Z,0
2017-09-16T01:23:26.723Z,0
2017-09-16T01:23:52.852Z,0
2017-09-16T01:24:18.980Z,0
2017-09-16T01:24:45.110Z,0
2017-09-16T01:25:11.237Z,0
2017-09-16T01:25:37.367Z,0
2017-09-16T01:26:03.496Z,0
2017-09-16T01:26:29.626Z,0
2017-09-16T01:26:55.754Z,0
2017-09-16T01:27:21.884Z,0
2017-09-16T01:27:48.034Z,0
2017-09-16T01:28:14.169Z,0
2017-09-16T01:28:40.292Z,0
2017-09-16T01:29:06.421Z,0
2017-09-16T01:29:32.550Z,0
2017-09-16T01:29:58.703Z,0
2017-09-16T01:30:24.826Z,0
2017-09-16T01:30:50.958Z,0
2017-09-16T01:31:17.086Z,0
2017-09-16T01:31:43.215Z,0
2017-09-16T01:32:09.344Z,0
2017-09-16T01:32:35.498Z,0
2017-09-16T01:33:01.648Z,0
2017-09-16T01:33:27.776Z,0
2017-09-16T01:33:53.905Z,0
2017-09-16T01:34:20.034Z,0
2017-09-16T01:34:46.163Z,0
2017-09-16T01:35:12.291Z,0
2017-09-16T01:35:38.421Z,0
2017-09-16T01:36:04.549Z,0
2017-09-16T01:36:30.678Z,0
2017-09-16T01:36:56.806Z,0
2017-09-16T01:37:22.936Z,0
2017-09-16T01:37:49.085Z,0
2017-09-16T01:38:15.193Z,0
2017-09-16T01:38:41.322Z,0
2017-09-16T01:39:07.452Z,0
2017-09-16T01:39:33.581Z,0
2017-09-16T01:39:59.732Z,0
2017-09-16T01:40:25.860Z,0
2017-09-16T01:40:51.988Z,0
2017-09-16T01:41:18.117Z,0
2017-09-16T01:41:44.246Z,0
2017-09-16T01:42:10.397Z,0
2017-09-16T01:42:36.526Z,0
2017-09-16T01:43:02.655Z,0
2017-09-16T01:43:28.786Z,0
2017-09-16T01:43:54.913Z,0
2017-09-16T01:44:21.044Z,0
2017-09-16T01:44:47.170Z,0
2017-09-16T01:45:13.298Z,0
2017-09-16T01:45:39.428Z,0
2017-09-16T01:46:05.581Z,0
2017-09-16T01:46:31.708Z,0
2017-09-16T01:46:57.837Z,0
2017-09-16T01:47:23.966Z,0
2017-09-16T01:47:50.094Z,0
2017-09-16T01:48:16.223Z,0
2017-09-16T01:48:42.379Z,0
2017-09-16T01:49:08.481Z,0
2017-09-16T01:49:34.609Z,0
2017-09-16T01:50:00.763Z,0
2017-09-16T01:50:26.891Z,0
2017-09-16T01:50:53.020Z,0
2017-09-16T01:51:19.149Z,0
2017-09-16T01:51:45.276Z,0
2017-09-16T01:52:11.405Z,0
2017-09-16T01:52:37.534Z,0
2017-09-16T01:53:03.663Z,0
2017-09-16T01:53:29.794Z,0
2017-09-16T01:53:55.923Z,0
2017-09-16T01:54:22.053Z,0
2017-09-16T01:54:48.203Z,0
2017-09-16T01:55:14.331Z,0
2017-09-16T01:55:40.460Z,0
2017-09-16T01:56:06.588Z,0
2017-09-16T01:56:32.718Z,0
2017-09-16T01:56:58.846Z,0
2017-09-16T01:57:24.976Z,0
2017-09-16T01:57:51.105Z,0
2017-09-16T01:58:17.234Z,0
2017-09-16T01:58:43.363Z,0
2017-09-16T01:59:09.497Z,0
2017-09-16T01:59:35.651Z,0
2017-09-16T02:00:01.803Z,0
2017-09-16T02:00:27.932Z,0
2017-09-16T02:00:54.083Z,0
2017-09-16T02:01:20.210Z,0
2017-09-16T02:01:46.339Z,0
2017-09-16T02:02:12.468Z,0
2017-09-16T02:02:38.597Z,0
2017-09-16T02:03:04.726Z,0
2017-09-16T02:03:30.855Z,0
2017-09-16T02:03:56.985Z,0
2017-09-16T02:04:23.113Z,0
2017-09-16T02:04:49.241Z,0
2017-09-16T02:05:15.371Z,0
2017-09-16T02:05:41.499Z,0
2017-09-16T02:06:07.632Z,0
2017-09-16T02:06:33.758Z,0
2017-09-16T02:06:59.887Z,0
2017-09-16T02:07:26.016Z,0
2017-09-16T02:07:52.146Z,0
2017-09-16T02:08:18.322Z,0
2017-09-16T02:08:44.453Z,0
2017-09-16T02:09:10.584Z,0
2017-09-16T02:09:36.714Z,0
2017-09-16T02:10:02.844Z,0
2017-09-16T02:10:28.972Z,0
2017-09-16T02:10:55.101Z,0
2017-09-16T02:11:21.230Z,0
2017-09-16T02:11:47.358Z,0
2017-09-16T02:12:13.487Z,0
2017-09-16T02:12:39.616Z,0
2017-09-16T02:13:05.745Z,0
2017-09-16T02:13:31.874Z,0
2017-09-16T02:13:58.004Z,0
2017-09-16T02:14:24.178Z,0
2017-09-16T02:14:50.304Z,0
2017-09-16T02:15:16.432Z,0
2017-09-16T02:15:42.559Z,0
2017-09-16T02:16:08.688Z,0
2017-09-16T02:16:34.817Z,0
2017-09-16T02:17:00.947Z,0
2017-09-16T02:17:27.097Z,0
2017-09-16T02:17:53.226Z,0
2017-09-16T02:18:19.379Z,0
2017-09-16T02:18:45.507Z,0
2017-09-16T02:19:11.636Z,0
2017-09-16T02:19:37.764Z,0
2017-09-16T02:20:03.894Z,0
2017-09-16T02:20:30.022Z,0
2017-09-16T02:20:56.152Z,0
2017-09-16T02:21:22.282Z,0
2017-09-16T02:21:48.409Z,0
2017-09-16T02:22:14.538Z,0
2017-09-16T02:22:40.667Z,0
2017-09-16T02:23:06.797Z,0
2017-09-16T02:23:32.925Z,0
2017-09-16T02:23:59.053Z,0
2017-09-16T02:24:25.182Z,0
2017-09-16T02:24:51.311Z,0
2017-09-16T02:25:17.440Z,0
2017-09-16T02:25:43.569Z,0
2017-09-16T02:26:09.698Z,0
2017-09-16T02:26:35.829Z,0
2017-09-16T02:27:01.977Z,0
2017-09-16T02:27:28.106Z,0
2017-09-16T02:27:54.234Z,0
2017-09-16T02:28:20.364Z,0
2017-09-16T02:28:46.495Z,0
2017-09-16T02:29:12.624Z,0
2017-09-16T02:29:38.756Z,0
2017-09-16T02:30:04.903Z,0
2017-09-16T02:30:31.030Z,0
2017-09-16T02:30:57.159Z,0
2017-09-16T02:31:23.287Z,0
2017-09-16T02:31:49.418Z,0
2017-09-16T02:32:15.568Z,0
2017-09-16T02:32:41.696Z,0
2017-09-16T02:33:07.847Z,0
2017-09-16T02:33:33.997Z,0
2017-09-16T02:34:00.126Z,0
2017-09-16T02:34:26.257Z,0
2017-09-16T02:34:52.406Z,0
2017-09-16T02:35:18.534Z,0
2017-09-16T02:35:44.713Z,0
2017-09-16T02:36:10.842Z,0
2017-09-16T02:36:36.973Z,0
2017-09-16T02:37:03.102Z,0
2017-09-16T02:37:29.231Z,0
2017-09-16T02:37:55.358Z,0
2017-09-16T02:38:21.510Z,0
2017-09-16T02:38:47.639Z,0
2017-09-16T02:39:13.768Z,0
2017-09-16T02:39:39.897Z,0
2017-09-16T02:40:06.028Z,0
2017-09-16T02:40:32.157Z,0
2017-09-16T02:40:58.286Z,0
2017-09-16T02:41:24.437Z,0
2017-09-16T02:41:50.564Z,0
2017-09-16T02:42:16.692Z,0
2017-09-16T02:42:42.821Z,0
2017-09-16T02:43:08.951Z,0
2017-09-16T02:43:35.080Z,0
2017-09-16T02:44:01.209Z,0
2017-09-16T02:44:27.338Z,0
2017-09-16T02:44:53.489Z,0
2017-09-16T02:45:19.617Z,0
2017-09-16T02:45:45.745Z,0
2017-09-16T02:46:11.875Z,0
2017-09-16T02:46:38.005Z,0
2017-09-16T02:47:04.142Z,0
2017-09-16T02:47:30.263Z,0
2017-09-16T02:47:56.393Z,0
2017-09-16T02:48:22.519Z,0
2017-09-16T02:48:48.649Z,0
2017-09-16T02:49:14.777Z,0
2017-09-16T02:49:40.928Z,0
2017-09-16T02:50:07.055Z,0
2017-09-16T02:50:33.184Z,0
2017-09-16T02:50:59.313Z,0
2017-09-16T02:51:25.442Z,0
2017-09-16T02:51:51.572Z,0
2017-09-16T02:52:17.699Z,0
2017-09-16T02:52:43.829Z,0
2017-09-16T02:53:09.958Z,0
2017-09-16T02:53:36.086Z,0
2017-09-16T02:54:02.214Z,0
2017-09-16T02:54:28.345Z,0
2017-09-16T02:54:54.474Z,0
2017-09-16T02:55:20.603Z,0
2017-09-16T02:55:46.732Z,0
2017-09-16T02:56:12.861Z,0
2017-09-16T02:56:38.990Z,0
2017-09-16T02:57:05.125Z,0
2017-09-16T02:57:31.247Z,0
2017-09-16T02:57:57.377Z,0
2017-09-16T02:58:23.506Z,0
2017-09-16T02:58:49.635Z,0
2017-09-16T02:59:15.763Z,0
2017-09-16T02:59:41.914Z,0
2017-09-16T03:00:08.043Z,0
2017-09-16T03:00:34.172Z,0
2017-09-16T03:01:00.301Z,0
2017-09-16T03:01:26.452Z,0
2017-09-16T03:01:52.579Z,0
2017-09-16T03:02:18.708Z,0
2017-09-16T03:02:44.837Z,0
2017-09-16T03:03:10.967Z,0
2017-09-16T03:03:37.118Z,0
2017-09-16T03:04:03.248Z,0
2017-09-16T03:04:29.376Z,0
2017-09-16T03:04:55.504Z,0
2017-09-16T03:05:21.658Z,0
2017-09-16T03:05:47.786Z,0
2017-09-16T03:06:13.916Z,0
2017-09-16T03:06:40.046Z,0
2017-09-16T03:07:06.176Z,0
2017-09-16T03:07:32.328Z,0
2017-09-16T03:07:58.460Z,0
2017-09-16T03:08:24.589Z,0
2017-09-16T03:08:50.723Z,0
2017-09-16T03:09:16.846Z,0
2017-09-16T03:09:42.976Z,0
2017-09-16T03:10:09.106Z,0
2017-09-16T03:10:35.257Z,0
2017-09-16T03:11:01.386Z,0
2017-09-16T03:11:27.515Z,0
2017-09-16T03:11:53.643Z,0
2017-09-16T03:12:19.774Z,0
2017-09-16T03:12:45.924Z,0
2017-09-16T03:13:12.053Z,0
2017-09-16T03:13:38.181Z,0
2017-09-16T03:14:04.310Z,0
2017-09-16T03:14:30.439Z,0
2017-09-16T03:14:56.567Z,0
2017-09-16T03:15:22.696Z,0
2017-09-16T03:15:48.824Z,0
2017-09-16T03:16:14.953Z,0
2017-09-16T03:16:41.084Z,0
2017-09-16T03:17:07.212Z,0
2017-09-16T03:17:33.341Z,0
2017-09-16T03:17:59.472Z,0
2017-09-16T03:18:25.620Z,0
2017-09-16T03:18:51.747Z,0
2017-09-16T03:19:17.877Z,0
2017-09-16T03:19:44.006Z,0
2017-09-16T03:20:10.158Z,0
2017-09-16T03:20:36.286Z,0
2017-09-16T03:21:02.414Z,0
2017-09-16T03:21:28.542Z,0
2017-09-16T03:21:54.672Z,0
2017-09-16T03:22:20.801Z,0
2017-09-16T03:22:46.929Z,0
2017-09-16T03:23:13.059Z,0
2017-09-16T03:23:39.187Z,0
2017-09-16T03:24:05.317Z,0
2017-09-16T03:24:31.446Z,0
2017-09-16T03:24:57.575Z,0
2017-09-16T03:25:23.704Z,0
2017-09-16T03:25:49.834Z,0
2017-09-16T03:26:15.962Z,0
2017-09-16T03:26:42.091Z,0
2017-09-16T03:27:08.220Z,0
2017-09-16T03:27:34.349Z,0
2017-09-16T03:28:00.478Z,0
2017-09-16T03:28:26.607Z,0
2017-09-16T03:28:52.736Z,0
2017-09-16T03:29:18.864Z,0
2017-09-16T03:29:44.994Z,0
2017-09-16T03:30:11.125Z,0
2017-09-16T03:30:37.253Z,0
2017-09-16T03:31:03.382Z,0
2017-09-16T03:31:29.511Z,0
2017-09-16T03:31:55.641Z,0
2017-09-16T03:32:21.778Z,0
2017-09-16T03:32:47.898Z,0
2017-09-16T03:33:14.027Z,0
2017-09-16T03:33:40.179Z,0
2017-09-16T03:34:06.308Z,0
2017-09-16T03:34:32.459Z,0
2017-09-16T03:34:58.588Z,0
2017-09-16T03:35:24.717Z,0
2017-09-16T03:35:50.846Z,0
2017-09-16T03:36:16.977Z,0
2017-09-16T03:36:43.103Z,0
2017-09-16T03:37:09.233Z,0
2017-09-16T03:37:35.363Z,0
2017-09-16T03:38:01.493Z,0
2017-09-16T03:38:27.621Z,0
2017-09-16T03:38:53.749Z,0
2017-09-16T03:39:19.901Z,0
2017-09-16T03:39:46.029Z,0
2017-09-16T03:40:12.159Z,0
2017-09-16T03:40:38.286Z,0
2017-09-16T03:41:04.416Z,0
2017-09-16T03:41:30.545Z,0
2017-09-16T03:41:56.674Z,0
2017-09-16T03:42:22.803Z,0
2017-09-16T03:42:48.932Z,0
2017-09-16T03:43:15.091Z,0
2017-09-16T03:43:41.191Z,0
2017-09-16T03:44:07.320Z,0
2017-09-16T03:44:33.448Z,0
2017-09-16T03:44:59.578Z,0
2017-09-16T03:45:25.707Z,0
2017-09-16T03:45:51.836Z,0
2017-09-16T03:46:17.965Z,0
2017-09-16T03:46:44.094Z,0
2017-09-16T03:47:10.223Z,0
2017-09-16T03:47:36.352Z,0
2017-09-16T03:48:02.481Z,0
2017-09-16T03:48:28.610Z,0
2017-09-16T03:48:54.739Z,0
2017-09-16T03:49:20.868Z,0
2017-09-16T03:49:46.997Z,0
2017-09-16T03:50:13.127Z,0
2017-09-16T03:50:39.256Z,0
2017-09-16T03:51:05.409Z,0
2017-09-16T03:51:31.536Z,0
2017-09-16T03:51:57.666Z,0
2017-09-16T03:52:23.793Z,0
2017-09-16T03:52:49.924Z,0
2017-09-16T03:53:16.053Z,0
2017-09-16T03:53:42.182Z,0
2017-09-16T03:54:08.333Z,0
2017-09-16T03:54:34.462Z,0
2017-09-16T03:55:00.590Z,0
2017-09-16T03:55:26.718Z,0
2017-09-16T03:55:52.854Z,0
2017-09-16T03:56:18.975Z,0
2017-09-16T03:56:45.106Z,0
2017-09-16T03:57:11.233Z,0
2017-09-16T03:57:37.364Z,0
2017-09-16T03:58:03.493Z,0
2017-09-16T03:58:29.622Z,0
2017-09-16T03:58:55.751Z,0
2017-09-16T03:59:21.880Z,0
2017-09-16T03:59:48.009Z,0
2017-09-16T04:00:14.163Z,0
2017-09-16T04:00:40.266Z,0
2017-09-16T04:01:06.397Z,0
2017-09-16T04:01:32.525Z,0
2017-09-16T04:01:58.655Z,0
2017-09-16T04:02:24.784Z,0
2017-09-16T04:02:50.913Z,0
2017-09-16T04:03:17.066Z,0
2017-09-16T04:03:43.194Z,0
2017-09-16T04:04:09.323Z,0
2017-09-16T04:04:35.474Z,0
2017-09-16T04:05:01.603Z,0
2017-09-16T04:05:27.732Z,0
2017-09-16T04:05:53.861Z,0
2017-09-16T04:06:19.990Z,0
2017-09-16T04:06:46.120Z,0
2017-09-16T04:07:12.248Z,0
2017-09-16T04:07:38.377Z,0
2017-09-16T04:08:04.507Z,0
2017-09-16T04:08:30.636Z,0
2017-09-16T04:08:56.765Z,0
2017-09-16T04:09:22.898Z,0
2017-09-16T04:09:49.023Z,0
2017-09-16T04:10:15.153Z,0
2017-09-16T04:10:41.283Z,0
2017-09-16T04:11:07.412Z,0
2017-09-16T04:11:33.541Z,0
2017-09-16T04:11:59.669Z,0
2017-09-16T04:12:25.799Z,0
2017-09-16T04:12:51.928Z,0
2017-09-16T04:13:18.058Z,0
2017-09-16T04:13:44.186Z,0
2017-09-16T04:14:10.315Z,0
2017-09-16T04:14:36.445Z,0
2017-09-16T04:15:02.580Z,0
2017-09-16T04:15:28.703Z,0
2017-09-16T04:15:54.853Z,0
2017-09-16T04:16:20.983Z,0
2017-09-16T04:16:47.112Z,0
2017-09-16T04:17:13.241Z,0
2017-09-16T04:17:39.392Z,0
2017-09-16T04:18:05.520Z,0
2017-09-16T04:18:31.650Z,0
2017-09-16T04:18:57.778Z,0
2017-09-16T04:19:23.907Z,0
2017-09-16T04:19:50.037Z,0
2017-09-16T04:20:16.166Z,0
2017-09-16T04:20:42.295Z,0
2017-09-16T04:21:08.424Z,0
2017-09-16T04:21:34.576Z,0
2017-09-16T04:22:00.704Z,0
2017-09-16T04:22:26.835Z,0
2017-09-16T04:22:52.984Z,0
2017-09-16T04:23:19.113Z,0
2017-09-16T04:23:45.244Z,0
2017-09-16T04:24:11.370Z,0
2017-09-16T04:24:37.500Z,0
2017-09-16T04:25:03.630Z,0
2017-09-16T04:25:29.760Z,0
2017-09-16T04:25:55.890Z,0
2017-09-16T04:26:22.018Z,0
2017-09-16T04:26:48.147Z,0
2017-09-16T04:27:14.276Z,0
2017-09-16T04:27:40.457Z,0
2017-09-16T04:28:06.583Z,0
2017-09-16T04:28:32.707Z,0
2017-09-16T04:28:58.857Z,0
2017-09-16T04:29:25.009Z,0
2017-09-16T04:29:51.136Z,0
2017-09-16T04:30:17.265Z,0
2017-09-16T04:30:43.394Z,0
2017-09-16T04:31:09.524Z,0
2017-09-16T04:31:35.654Z,0
2017-09-16T04:32:01.783Z,0
2017-09-16T04:32:27.911Z,0
2017-09-16T04:32:54.042Z,0
2017-09-16T04:33:20.171Z,0
2017-09-16T04:33:46.306Z,0
2017-09-16T04:34:12.429Z,0
2017-09-16T04:34:38.559Z,4
2017-09-16T04:35:04.689Z,4
2017-09-16T04:35:30.818Z,4
2017-09-16T04:35:56.947Z,4
2017-09-16T04:36:23.076Z,4
2017-09-16T04:36:49.205Z,4
2017-09-16T04:37:15.334Z,0
2017-09-16T04:37:41.462Z,0
2017-09-16T04:38:07.592Z,4
2017-09-16T04:38:33.721Z,4
2017-09-16T04:38:59.849Z,4
2017-09-16T04:39:25.980Z,4
2017-09-16T04:39:52.110Z,4
2017-09-16T04:40:18.261Z,4
2017-09-16T04:40:44.412Z,4
2017-09-16T04:41:10.540Z,4
2017-09-16T04:41:36.670Z,4
2017-09-16T04:42:02.799Z,8
2017-09-16T04:42:28.928Z,8
2017-09-16T04:42:55.079Z,4
2017-09-16T04:43:21.207Z,8
2017-09-16T04:43:47.336Z,8
2017-09-16T04:44:13.473Z,8
2017-09-16T04:44:39.594Z,8
2017-09-16T04:45:05.724Z,12
2017-09-16T04:45:31.853Z,8
2017-09-16T04:45:57.982Z,12
2017-09-16T04:46:24.111Z,12
2017-09-16T04:46:50.241Z,12
2017-09-16T04:47:16.391Z,16
2017-09-16T04:47:42.521Z,12
2017-09-16T04:48:08.650Z,16
2017-09-16T04:48:34.779Z,16
2017-09-16T04:49:00.909Z,16
2017-09-16T04:49:27.037Z,20
2017-09-16T04:49:53.166Z,20
2017-09-16T04:50:19.296Z,24
2017-09-16T04:50:45.425Z,24
2017-09-16T04:51:11.556Z,28
2017-09-16T04:51:37.684Z,28
2017-09-16T04:52:03.813Z,28
2017-09-16T04:52:29.943Z,32
2017-09-16T04:52:56.072Z,32
2017-09-16T04:53:22.201Z,36
2017-09-16T04:53:48.330Z,36
2017-09-16T04:54:14.460Z,40
2017-09-16T04:54:40.589Z,44
2017-09-16T04:55:06.717Z,40
2017-09-16T04:55:32.846Z,48
2017-09-16T04:55:58.976Z,48
2017-09-16T04:56:25.104Z,48
2017-09-16T04:56:51.232Z,52
2017-09-16T04:57:17.360Z,56
2017-09-16T04:57:43.491Z,56
2017-09-16T04:58:09.623Z,60
2017-09-16T04:58:35.752Z,64
2017-09-16T04:59:01.882Z,64
2017-09-16T04:59:28.010Z,68
2017-09-16T04:59:54.139Z,68
2017-09-16T05:00:20.268Z,72
2017-09-16T05:00:46.397Z,72
2017-09-16T05:01:12.527Z,76
2017-09-16T05:01:38.677Z,84
2017-09-16T05:02:04.807Z,88
2017-09-16T05:02:30.935Z,88
2017-09-16T05:02:57.066Z,92
2017-09-16T05:03:23.192Z,96
2017-09-16T05:03:49.321Z,104
2017-09-16T05:04:15.451Z,104
2017-09-16T05:04:41.580Z,108
2017-09-16T05:05:07.711Z,112
2017-09-16T05:05:33.840Z,116
2017-09-16T05:05:59.970Z,124
2017-09-16T05:06:26.099Z,128
2017-09-16T05:06:52.249Z,140
2017-09-16T05:07:18.355Z,148
2017-09-16T05:07:44.498Z,156
2017-09-16T05:08:10.613Z,164
2017-09-16T05:08:36.767Z,172
2017-09-16T05:09:02.896Z,180
2017-09-16T05:09:29.025Z,192
2017-09-16T05:09:55.154Z,200
2017-09-16T05:10:21.283Z,208
2017-09-16T05:10:47.413Z,216
2017-09-16T05:11:13.543Z,224
2017-09-16T05:11:39.671Z,232
2017-09-16T05:12:05.801Z,240
2017-09-16T05:12:31.951Z,248
2017-09-16T05:12:58.081Z,252
2017-09-16T05:13:24.210Z,260
2017-09-16T05:13:50.339Z,268
2017-09-16T05:14:16.469Z,280
2017-09-16T05:14:42.603Z,288
2017-09-16T05:15:08.727Z,296
2017-09-16T05:15:34.857Z,304
2017-09-16T05:16:00.985Z,316
2017-09-16T05:16:27.114Z,328
2017-09-16T05:16:53.243Z,340
2017-09-16T05:17:19.372Z,352
2017-09-16T05:17:45.502Z,364
2017-09-16T05:18:11.631Z,372
2017-09-16T05:18:37.760Z,384
2017-09-16T05:19:03.890Z,396
2017-09-16T05:19:30.021Z,404
2017-09-16T05:19:56.149Z,416
2017-09-16T05:20:22.278Z,420
2017-09-16T05:20:48.429Z,432
2017-09-16T05:21:14.558Z,440
2017-09-16T05:21:40.688Z,448
2017-09-16T05:22:06.817Z,456
2017-09-16T05:22:32.946Z,464
2017-09-16T05:22:59.075Z,468
2017-09-16T05:23:25.205Z,480
2017-09-16T05:23:51.333Z,488
2017-09-16T05:24:17.462Z,496
2017-09-16T05:24:43.614Z,508
2017-09-16T05:25:09.742Z,516
2017-09-16T05:25:35.871Z,528
2017-09-16T05:26:02.001Z,544
2017-09-16T05:26:28.128Z,556
2017-09-16T05:26:54.279Z,568
2017-09-16T05:27:20.409Z,580
2017-09-16T05:27:46.538Z,592
2017-09-16T05:28:12.667Z,600
2017-09-16T05:28:38.797Z,612
2017-09-16T05:29:04.926Z,628
2017-09-16T05:29:31.055Z,640
2017-09-16T05:29:57.185Z,652
2017-09-16T05:30:23.313Z,664
2017-09-16T05:30:49.444Z,672
2017-09-16T05:31:15.595Z,684
2017-09-16T05:31:41.724Z,692
2017-09-16T05:32:07.853Z,704
2017-09-16T05:32:33.981Z,716
2017-09-16T05:33:00.113Z,724
2017-09-16T05:33:26.241Z,728
2017-09-16T05:33:52.371Z,740
2017-09-16T05:34:18.500Z,748
2017-09-16T05:34:44.629Z,756
2017-09-16T05:35:10.759Z,764
2017-09-16T05:35:36.888Z,780
2017-09-16T05:36:03.017Z,788
2017-09-16T05:36:29.148Z,800
2017-09-16T05:36:55.276Z,816
2017-09-16T05:37:21.405Z,828
2017-09-16T05:37:47.534Z,840
2017-09-16T05:38:13.669Z,856
2017-09-16T05:38:39.813Z,868
2017-09-16T05:39:05.967Z,880
2017-09-16T05:39:32.095Z,892
2017-09-16T05:39:58.224Z,900
2017-09-16T05:40:24.353Z,912
2017-09-16T05:40:50.483Z,924
2017-09-16T05:41:16.612Z,936
2017-09-16T05:41:42.741Z,956
2017-09-16T05:42:08.870Z,976
2017-09-16T05:42:34.999Z,992
2017-09-16T05:43:01.129Z,1012
2017-09-16T05:43:27.258Z,1032
2017-09-16T05:43:53.388Z,1056
2017-09-16T05:44:19.517Z,1084
2017-09-16T05:44:45.646Z,1108
2017-09-16T05:45:11.776Z,1132
2017-09-16T05:45:37.905Z,1152
2017-09-16T05:46:04.034Z,1168
2017-09-16T05:46:30.162Z,1188
2017-09-16T05:46:56.293Z,1204
2017-09-16T05:47:22.422Z,1224
2017-09-16T05:47:48.551Z,1236
2017-09-16T05:48:14.681Z,1252
2017-09-16T05:48:40.831Z,1272
2017-09-16T05:49:06.959Z,1292
2017-09-16T05:49:33.111Z,1304
2017-09-16T05:49:59.241Z,1324
2017-09-16T05:50:25.369Z,1336
2017-09-16T05:50:51.499Z,1344
2017-09-16T05:51:17.627Z,1356
2017-09-16T05:51:43.757Z,1368
2017-09-16T05:52:09.887Z,1384
2017-09-16T05:52:36.016Z,1400
2017-09-16T05:53:02.146Z,1424
2017-09-16T05:53:28.275Z,1452
2017-09-16T05:53:54.404Z,1476
2017-09-16T05:54:20.533Z,1500
2017-09-16T05:54:46.685Z,1516
2017-09-16T05:55:12.813Z,1532
2017-09-16T05:55:38.943Z,1548
2017-09-16T05:56:05.072Z,1556
2017-09-16T05:56:31.200Z,1568
2017-09-16T05:56:57.352Z,1580
2017-09-16T05:57:23.483Z,1588
2017-09-16T05:57:49.610Z,1596
2017-09-16T05:58:15.739Z,1604
2017-09-16T05:58:41.868Z,1620
2017-09-16T05:59:07.998Z,1636
2017-09-16T05:59:34.128Z,1656
2017-09-16T06:00:00.258Z,1672
2017-09-16T06:00:26.387Z,1696
2017-09-16T06:00:52.517Z,1720
2017-09-16T06:01:18.646Z,1748
2017-09-16T06:01:44.774Z,1776
2017-09-16T06:02:10.903Z,1816
2017-09-16T06:02:37.032Z,1860
2017-09-16T06:03:03.161Z,1912
2017-09-16T06:03:29.290Z,1968
2017-09-16T06:03:55.420Z,2020
2017-09-16T06:04:21.549Z,2072
2017-09-16T06:04:47.680Z,2128
2017-09-16T06:05:13.830Z,2200
2017-09-16T06:05:39.962Z,2268
2017-09-16T06:06:06.090Z,2332
2017-09-16T06:06:32.219Z,2396
2017-09-16T06:06:58.349Z,2468
2017-09-16T06:07:24.479Z,2536
2017-09-16T06:07:50.608Z,2616
2017-09-16T06:08:16.738Z,2700
2017-09-16T06:08:42.866Z,2788
2017-09-16T06:09:08.995Z,2868
2017-09-16T06:09:35.123Z,2932
2017-09-16T06:10:01.253Z,2980
2017-09-16T06:10:27.384Z,3036
2017-09-16T06:10:53.514Z,3092
2017-09-16T06:11:19.644Z,3144
2017-09-16T06:11:45.772Z,3188
2017-09-16T06:12:11.903Z,3224
2017-09-16T06:12:38.032Z,3272
2017-09-16T06:13:04.161Z,3324
2017-09-16T06:13:30.291Z,3384
2017-09-16T06:13:56.420Z,3444
2017-09-16T06:14:22.549Z,3504
2017-09-16T06:14:48.678Z,3548
2017-09-16T06:15:14.808Z,3592
2017-09-16T06:15:40.937Z,3628
2017-09-16T06:16:07.067Z,3664
2017-09-16T06:16:33.196Z,3700
2017-09-16T06:16:59.326Z,3740
2017-09-16T06:17:25.458Z,3772
2017-09-16T06:17:51.606Z,3808
2017-09-16T06:18:17.735Z,3856
2017-09-16T06:18:43.865Z,3920